Time;durP1;ratioP1;P1;durP2;ratioP2;P2;SDS_P1;SDS_P2;PMS_P1;PMS_P2;Temp;Humidity;BMP_temperature;BMP_pressure;BME280_temperature;BME280_humidity;BME280_pressure;Samples;Min_cycle;Max_cycle;Signal;HPM_P1;HPM_P2
2022/11/22 00:00:59;;;;;;;;;;;;;;;21.49;49.46;99720.44;5086865;28;4178;-66
2022/11/22 00:03:26;;;;;;;;;;;;;;;21.53;49.33;99714.03;5087830;28;3974;-66
2022/11/22 00:05:52;;;;;;;;;;;;;;;21.53;49.56;99696.75;5097477;28;4161;-67
2022/11/22 00:08:18;;;;;;;;;;;;;;;21.53;49.12;99694.63;5079391;28;5242;-66
2022/11/22 00:10:46;;;;;;;;;;;;;;;21.51;49.08;99699.59;5087997;28;5250;-66
2022/11/22 00:13:13;;;;;;;;;;;;;;;21.51;49.16;99700.31;5086859;28;4061;-67
2022/11/22 00:15:39;;;;;;;;;;;;;;;21.52;49.03;99701.78;5085559;28;5292;-66
2022/11/22 00:18:05;;;;;;;;;;;;;;;21.50;49.27;99692.34;5090092;28;4066;-66
2022/11/22 00:20:32;;;;;;;;;;;;;;;21.53;49.31;99688.09;5090252;28;4186;-66
2022/11/22 00:22:58;;;;;;;;;;;;;;;21.56;48.98;99701.16;5082115;28;4139;-66
2022/11/22 00:25:25;;;;;;;;;;;;;;;21.56;49.08;99689.63;5086492;28;4167;-66
2022/11/22 00:27:51;;;;;;;;;;;;;;;21.56;49.05;99698.25;5089571;28;4118;-66
2022/11/22 00:30:18;;;;;;;;;;;;;;;21.52;48.94;99690.25;5081167;28;4159;-66
2022/11/22 00:32:44;;;;;;;;;;;;;;;21.51;48.88;99696.72;5093310;28;4055;-66
2022/11/22 00:35:10;;;;;;;;;;;;;;;21.52;49.07;99707.53;5084914;28;5346;-66
2022/11/22 00:37:37;;;;;;;;;;;;;;;21.51;49.09;99705.34;5090062;28;5533;-67
2022/11/22 00:40:03;;;;;;;;;;;;;;;21.53;49.22;99716.91;5088740;27;4547;-67
2022/11/22 00:42:30;;;;;;;;;;;;;;;21.47;48.89;99705.25;5090870;28;5055;-66
2022/11/22 00:44:56;;;;;;;;;;;;;;;21.49;48.90;99688.03;5089646;28;4345;-66
2022/11/22 00:47:22;;;;;;;;;;;;;;;21.46;48.91;99695.13;5083402;28;4097;-66
2022/11/22 00:49:49;;;;;;;;;;;;;;;21.48;48.91;99690.16;5086346;28;4189;-66
2022/11/22 00:52:15;;;;;;;;;;;;;;;21.47;48.86;99687.97;5080304;28;4260;-67
2022/11/22 00:54:44;;;;;;;;;;;;;;;21.47;48.69;99679.34;5084104;28;4255;-66
2022/11/22 00:57:16;;;;;;;;;;;;;;;21.47;49.00;99682.22;5080253;28;4002;-67
2022/11/22 00:59:43;;;;;;;;;;;;;;;21.50;49.06;99680.84;5081711;28;4268;-67
2022/11/22 01:02:09;;;;;;;;;;;;;;;21.53;48.96;99680.22;5083841;28;4155;-66
2022/11/22 01:04:35;;;;;;;;;;;;;;;21.55;49.01;99676.63;5087929;28;4140;-67
2022/11/22 01:07:02;;;;;;;;;;;;;;;21.54;48.89;99686.69;5080812;28;4163;-66
2022/11/22 01:09:28;;;;;;;;;;;;;;;21.54;48.74;99680.94;5079783;28;5137;-66
2022/11/22 01:11:55;;;;;;;;;;;;;;;21.53;48.89;99676.56;5086429;28;4182;-66
2022/11/22 01:14:21;;;;;;;;;;;;;;;21.51;48.79;99670.78;5085183;28;5227;-66
2022/11/22 01:16:47;;;;;;;;;;;;;;;21.51;48.58;99670.78;5084166;28;4096;-66
2022/11/22 01:19:14;;;;;;;;;;;;;;;21.51;48.97;99676.56;5079644;28;5440;-66
2022/11/22 01:21:40;;;;;;;;;;;;;;;21.49;48.81;99667.88;5087647;28;4191;-66
2022/11/22 01:24:07;;;;;;;;;;;;;;;21.46;48.71;99674.97;5084202;28;4197;-66
2022/11/22 01:26:33;;;;;;;;;;;;;;;21.45;48.75;99673.53;5086660;28;5162;-66
2022/11/22 01:28:59;;;;;;;;;;;;;;;21.48;48.77;99683.66;5083944;28;4078;-66
2022/11/22 01:31:26;;;;;;;;;;;;;;;21.47;48.76;99676.47;5089760;28;5243;-66
2022/11/22 01:33:52;;;;;;;;;;;;;;;21.46;48.66;99677.84;5095170;28;4082;-67
2022/11/22 01:36:18;;;;;;;;;;;;;;;21.45;48.67;99682.16;5089070;28;4300;-67
2022/11/22 01:38:45;;;;;;;;;;;;;;;21.48;48.75;99686.53;5092019;28;4173;-66
2022/11/22 01:41:11;;;;;;;;;;;;;;;21.48;48.56;99677.91;5088369;28;5299;-66
2022/11/22 01:43:38;;;;;;;;;;;;;;;21.47;48.59;99670.69;5091053;28;4074;-66
2022/11/22 01:46:08;;;;;;;;;;;;;;;21.47;48.79;99679.34;5096779;28;4293;-66
2022/11/22 01:48:51;;;;;;;;;;;;;;;21.48;48.53;99675.03;5074588;28;4059;-66
2022/11/22 01:51:38;;;;;;;;;;;;;;;21.47;48.75;99676.47;5091550;28;4469;-66
2022/11/22 01:54:09;;;;;;;;;;;;;;;21.46;48.83;99663.47;5091777;28;4054;-66
2022/11/22 01:56:36;;;;;;;;;;;;;;;21.45;48.70;99674.25;5090835;28;4273;-67
2022/11/22 01:59:06;;;;;;;;;;;;;;;21.43;48.71;99679.25;5093209;28;3977;-66
2022/11/22 02:01:32;;;;;;;;;;;;;;;21.42;48.48;99680.66;5075806;28;4149;-66
2022/11/22 02:03:59;;;;;;;;;;;;;;;21.41;48.50;99684.94;5094524;28;4166;-66
2022/11/22 02:06:27;;;;;;;;;;;;;;;21.42;48.58;99690.03;5062108;28;4207;-66
2022/11/22 02:08:58;;;;;;;;;;;;;;;21.42;48.65;99692.91;5079500;28;5229;-66
2022/11/22 02:11:24;;;;;;;;;;;;;;;21.45;48.51;99690.81;5076028;28;4163;-66
2022/11/22 02:13:59;;;;;;;;;;;;;;;21.47;48.42;99682.22;5062872;28;4197;-66
2022/11/22 02:16:25;;;;;;;;;;;;;;;21.48;48.45;99686.53;5072564;28;5468;-66
2022/11/22 02:18:51;;;;;;;;;;;;;;;21.49;48.54;99693.78;5072916;28;5520;-66
2022/11/22 02:21:36;;;;;;;;;;;;;;;21.46;48.51;99672.84;5062434;28;4284;-66
2022/11/22 02:24:15;;;;;;;;;;;;;;;21.47;48.68;99664.94;5059378;28;4165;-66
2022/11/22 02:26:41;;;;;;;;;;;;;;;21.48;48.70;99661.34;5073145;28;4485;-66
2022/11/22 02:29:07;;;;;;;;;;;;;;;21.47;48.23;99659.19;5065876;28;5133;-66
2022/11/22 02:31:34;;;;;;;;;;;;;;;21.45;48.40;99656.25;5075458;28;4034;-66
2022/11/22 02:34:01;;;;;;;;;;;;;;;21.44;48.52;99644.00;5076397;28;4180;-67
2022/11/22 02:36:29;;;;;;;;;;;;;;;21.40;48.45;99637.41;5072439;28;4517;-66
2022/11/22 02:38:55;;;;;;;;;;;;;;;21.42;48.45;99640.34;5075727;28;4087;-67
2022/11/22 02:41:21;;;;;;;;;;;;;;;21.42;48.36;99640.34;5060679;28;5262;-66
2022/11/22 02:43:48;;;;;;;;;;;;;;;21.40;48.56;99631.63;5085214;28;3918;-66
2022/11/22 02:46:20;;;;;;;;;;;;;;;21.39;48.53;99633.75;5065819;28;4042;-66
2022/11/22 02:48:46;;;;;;;;;;;;;;;21.42;48.40;99634.59;5083541;28;4053;-66
2022/11/22 02:51:15;;;;;;;;;;;;;;;21.43;48.31;99638.94;5078519;28;4157;-66
2022/11/22 02:53:42;;;;;;;;;;;;;;;21.44;48.30;99638.25;5085893;28;4142;-66
2022/11/22 02:56:08;;;;;;;;;;;;;;;21.43;48.45;99631.00;5079138;28;4151;-66
2022/11/22 02:58:35;;;;;;;;;;;;;;;21.44;48.20;99625.97;5082639;28;5294;-66
2022/11/22 03:01:01;;;;;;;;;;;;;;;21.43;48.23;99631.00;5084030;28;4166;-66
2022/11/22 03:03:27;;;;;;;;;;;;;;;21.41;48.30;99621.59;5087809;28;5132;-66
2022/11/22 03:05:54;;;;;;;;;;;;;;;21.40;48.44;99620.88;5079787;28;5114;-66
2022/11/22 03:08:20;;;;;;;;;;;;;;;21.37;48.28;99615.72;5084203;28;5198;-68
2022/11/22 03:10:46;;;;;;;;;;;;;;;21.39;48.25;99618.63;5082834;28;4196;-66
2022/11/22 03:13:13;;;;;;;;;;;;;;;21.40;48.21;99609.34;5081828;28;4187;-66
2022/11/22 03:15:39;;;;;;;;;;;;;;;21.40;48.24;99617.25;5082754;28;4581;-67
2022/11/22 03:18:05;;;;;;;;;;;;;;;21.38;48.36;99605.66;5080553;28;4203;-66
2022/11/22 03:20:32;;;;;;;;;;;;;;;21.39;48.17;99612.88;5082330;28;4113;-66
2022/11/22 03:22:58;;;;;;;;;;;;;;;21.38;48.25;99620.06;5084160;28;5208;-67
2022/11/22 03:25:25;;;;;;;;;;;;;;;21.39;48.42;99610.00;5084054;28;5454;-66
2022/11/22 03:27:51;;;;;;;;;;;;;;;21.40;48.17;99623.75;5084518;28;4164;-66
2022/11/22 03:30:18;;;;;;;;;;;;;;;21.44;48.41;99620.22;5082635;28;4176;-66
2022/11/22 03:32:44;;;;;;;;;;;;;;;21.44;48.25;99615.22;5085472;28;4076;-66
2022/11/22 03:35:10;;;;;;;;;;;;;;;21.44;48.12;99615.22;5086111;28;5305;-66
2022/11/22 03:37:37;;;;;;;;;;;;;;;21.44;48.34;99615.22;5072711;28;5186;-66
2022/11/22 03:40:03;;;;;;;;;;;;;;;21.44;48.38;99612.31;5081274;28;4171;-66
2022/11/22 03:42:30;;;;;;;;;;;;;;;21.44;48.06;99614.44;5070285;28;4091;-67
2022/11/22 03:44:56;;;;;;;;;;;;;;;21.43;48.38;99613.72;5085337;28;4161;-66
2022/11/22 03:47:22;;;;;;;;;;;;;;;21.44;48.00;99602.94;5079484;28;4118;-67
2022/11/22 03:49:48;;;;;;;;;;;;;;;21.45;48.04;99601.53;5087178;28;4497;-66
2022/11/22 03:52:15;;;;;;;;;;;;;;;21.45;48.30;99599.38;5083778;28;4553;-67
2022/11/22 03:54:41;;;;;;;;;;;;;;;21.46;48.18;99594.34;5085068;28;4166;-66
2022/11/22 03:57:07;;;;;;;;;;;;;;;21.46;48.17;99594.34;5080398;28;4137;-66
2022/11/22 03:59:34;;;;;;;;;;;;;;;21.49;48.13;99587.22;5080907;28;4204;-66
2022/11/22 04:02:00;;;;;;;;;;;;;;;21.49;48.25;99587.22;5088227;28;4191;-66
2022/11/22 04:04:27;;;;;;;;;;;;;;;21.49;48.02;99593.00;5080901;28;4056;-66
2022/11/22 04:06:53;;;;;;;;;;;;;;;21.51;48.23;99595.91;5084206;28;3957;-67
2022/11/22 04:09:19;;;;;;;;;;;;;;;21.51;47.82;99578.63;5081918;28;4261;-66
2022/11/22 04:11:46;;;;;;;;;;;;;;;21.51;47.88;99579.34;5090699;28;5245;-66
2022/11/22 04:16:57;;;;;;;;;;;;;;;21.49;47.90;99590.84;5079539;28;4105;-66
2022/11/22 04:19:23;;;;;;;;;;;;;;;21.48;47.95;99591.50;5074358;28;4157;-66
2022/11/22 04:21:50;;;;;;;;;;;;;;;21.46;47.97;99600.84;5083477;28;4197;-66
2022/11/22 04:27:01;;;;;;;;;;;;;;;21.46;48.07;99589.34;5080936;28;4330;-66
2022/11/22 04:29:27;;;;;;;;;;;;;;;21.48;48.14;99594.38;5084261;28;4145;-67
2022/11/22 04:34:39;;;;;;;;;;;;;;;21.48;47.91;99580.72;5082492;28;4178;-67
2022/11/22 04:37:05;;;;;;;;;;;;;;;21.50;48.01;99577.16;5083380;28;5482;-66
2022/11/22 04:39:32;;;;;;;;;;;;;;;21.49;47.80;99575.72;5081472;28;6304;-66
2022/11/22 04:44:44;;;;;;;;;;;;;;;21.50;48.16;99565.63;5083261;28;4302;-66
2022/11/22 04:47:11;;;;;;;;;;;;;;;21.51;47.82;99567.13;5082051;28;4128;-66
2022/11/22 04:49:38;;;;;;;;;;;;;;;21.52;47.79;99557.03;5086661;28;4223;-66
2022/11/22 04:54:49;;;;;;;;;;;;;;;21.52;47.73;99559.91;5085954;28;4019;-66
2022/11/22 04:57:15;;;;;;;;;;;;;;;21.51;47.93;99561.34;5087464;28;4440;-66
2022/11/22 04:59:41;;;;;;;;;;;;;;;21.51;47.79;99555.59;5086121;28;4119;-66
2022/11/22 05:02:08;;;;;;;;;;;;;;;21.51;47.91;99558.47;5092308;28;4078;-66
2022/11/22 05:04:34;;;;;;;;;;;;;;;21.49;47.83;99555.56;5079054;28;5193;-66
2022/11/22 05:07:01;;;;;;;;;;;;;;;21.51;47.71;99567.13;5080492;28;4169;-66
2022/11/22 05:09:27;;;;;;;;;;;;;;;21.50;47.87;99582.91;5088587;28;4186;-66
2022/11/22 05:11:54;;;;;;;;;;;;;;;21.51;48.04;99590.16;5083062;28;4175;-67
2022/11/22 05:14:20;;;;;;;;;;;;;;;21.47;47.79;99581.41;5083429;28;4131;-67
2022/11/22 05:16:46;;;;;;;;;;;;;;;21.49;47.70;99587.22;5089938;28;4194;-66
2022/11/22 05:19:13;;;;;;;;;;;;;;;21.49;47.68;99578.59;5087744;28;5326;-66
2022/11/22 05:21:39;;;;;;;;;;;;;;;21.49;47.91;99575.72;5082027;28;3969;-66
2022/11/22 05:24:05;;;;;;;;;;;;;;;21.48;48.04;99580.00;5087984;28;5365;-66
2022/11/22 05:26:32;;;;;;;;;;;;;;;21.48;47.80;99585.75;5090697;28;4021;-66
2022/11/22 05:29:03;;;;;;;;;;;;;;;21.48;47.71;99583.59;5084378;28;4436;-66
2022/11/22 05:31:29;;;;;;;;;;;;;;;21.49;47.80;99578.59;5086530;28;4156;-67
2022/11/22 05:33:55;;;;;;;;;;;;;;;21.46;48.11;99569.19;5065697;28;4201;-66
2022/11/22 05:36:22;;;;;;;;;;;;;;;21.47;47.92;99570.63;5073525;28;4173;-66
2022/11/22 05:38:48;;;;;;;;;;;;;;;21.51;47.71;99572.88;5082283;28;4176;-65
2022/11/22 05:41:15;;;;;;;;;;;;;;;21.53;48.15;99582.28;5080661;28;6390;-67
2022/11/22 05:43:41;;;;;;;;;;;;;;;21.55;47.93;99590.22;5093849;28;4164;-67
2022/11/22 05:46:11;;;;;;;;;;;;;;;20.92;47.32;99575.84;5090315;28;4240;-58
2022/11/22 05:48:38;;;;;;;;;;;;;;;21.21;46.67;99582.28;5080594;28;4172;-60
2022/11/22 05:51:08;;;;;;;;;;;;;;;21.22;47.27;99583.72;5079918;28;4180;-60
2022/11/22 05:53:34;;;;;;;;;;;;;;;21.28;46.08;99586.75;5082634;28;4279;-60
2022/11/22 05:56:05;;;;;;;;;;;;;;;21.38;46.97;99588.41;5095641;28;4204;-60
2022/11/22 05:58:31;;;;;;;;;;;;;;;21.43;46.16;99587.09;5082587;28;6341;-60
2022/11/22 06:01:01;;;;;;;;;;;;;;;21.46;46.42;99582.81;5096631;28;4203;-61
2022/11/22 06:03:27;;;;;;;;;;;;;;;21.48;47.03;99582.88;5090319;28;4138;-60
2022/11/22 06:05:53;;;;;;;;;;;;;;;21.46;46.82;99588.59;5101186;28;4333;-60
2022/11/22 06:08:20;;;;;;;;;;;;;;;21.43;47.16;99590.69;5077904;28;5227;-61
2022/11/22 06:10:46;;;;;;;;;;;;;;;21.46;47.40;99588.59;5079742;28;4023;-60
2022/11/22 06:13:12;;;;;;;;;;;;;;;21.47;48.38;99595.81;5090698;28;4289;-60
2022/11/22 06:15:39;;;;;;;;;;;;;;;21.46;48.57;99585.69;5089797;28;5303;-60
2022/11/22 06:18:05;;;;;;;;;;;;;;;21.44;49.08;99592.16;5090884;28;3956;-60
2022/11/22 06:20:31;;;;;;;;;;;;;;;21.44;48.96;99592.16;5093445;28;4207;-61
2022/11/22 06:22:58;;;;;;;;;;;;;;;21.42;48.99;99591.41;5091363;28;4014;-60
2022/11/22 06:25:24;;;;;;;;;;;;;;;21.42;49.35;99588.53;5089879;28;4110;-61
2022/11/22 06:27:51;;;;;;;;;;;;;;;21.41;49.47;99601.44;5090428;28;5200;-61
2022/11/22 06:30:17;;;;;;;;;;;;;;;21.40;49.37;99602.84;5096272;28;4201;-60
2022/11/22 06:32:43;;;;;;;;;;;;;;;21.40;50.00;99603.59;5092960;28;4114;-60
2022/11/22 06:35:10;;;;;;;;;;;;;;;21.37;50.03;99610.69;5096783;28;4076;-60
2022/11/22 06:37:36;;;;;;;;;;;;;;;21.34;49.83;99607.03;5097010;28;4121;-61
2022/11/22 06:40:02;;;;;;;;;;;;;;;21.37;50.40;99609.94;5096077;28;4320;-60
2022/11/22 06:42:29;;;;;;;;;;;;;;;21.34;50.11;99609.19;5092979;28;4164;-60
2022/11/22 06:44:55;;;;;;;;;;;;;;;21.32;50.23;99618.50;5097328;28;3978;-61
2022/11/22 06:47:21;;;;;;;;;;;;;;;21.32;50.00;99627.13;5095718;28;4221;-62
2022/11/22 06:49:48;;;;;;;;;;;;;;;21.33;49.92;99622.84;5100262;28;5078;-66
2022/11/22 06:52:14;;;;;;;;;;;;;;;21.25;50.26;99634.16;5093561;28;5323;-66
2022/11/22 06:54:40;;;;;;;;;;;;;;;19.41;40.51;99635.69;5099594;28;4146;-60
2022/11/22 06:57:07;;;;;;;;;;;;;;;20.06;40.74;99628.25;5088003;28;4120;-60
2022/11/22 06:59:33;;;;;;;;;;;;;;;20.51;41.84;99623.72;5088383;28;4435;-60
2022/11/22 07:02:00;;;;;;;;;;;;;;;20.77;42.42;99622.94;5093884;28;4059;-60
2022/11/22 07:04:31;;;;;;;;;;;;;;;20.90;44.04;99629.75;5098252;28;3990;-60
2022/11/22 07:06:58;;;;;;;;;;;;;;;20.97;44.87;99616.25;5095668;28;4189;-60
2022/11/22 07:09:24;;;;;;;;;;;;;;;21.00;44.78;99623.50;5093175;28;4118;-60
2022/11/22 07:11:51;;;;;;;;;;;;;;;21.06;46.63;99629.41;5095934;28;4144;-60
2022/11/22 07:14:17;;;;;;;;;;;;;;;21.07;46.77;99625.09;5089893;28;4470;-60
2022/11/22 07:16:43;;;;;;;;;;;;;;;21.07;47.34;99631.63;5090126;28;4068;-60
2022/11/22 07:19:09;;;;;;;;;;;;;;;21.09;47.55;99633.78;5094955;28;4227;-60
2022/11/22 07:21:36;;;;;;;;;;;;;;;21.09;48.03;99642.44;5090671;28;4356;-60
2022/11/22 07:24:03;;;;;;;;;;;;;;;21.09;48.02;99645.31;5093411;28;4400;-60
2022/11/22 07:26:29;;;;;;;;;;;;;;;21.09;48.27;99639.56;5091729;28;5312;-60
2022/11/22 07:28:55;;;;;;;;;;;;;;;21.09;48.23;99648.19;5093930;28;4660;-60
2022/11/22 07:31:22;;;;;;;;;;;;;;;21.08;48.25;99640.97;5077732;28;4321;-60
2022/11/22 07:33:48;;;;;;;;;;;;;;;21.07;48.34;99639.50;5086913;28;5369;-60
2022/11/22 07:36:18;;;;;;;;;;;;;;;21.06;48.65;99633.00;5083360;28;4183;-60
2022/11/22 07:38:45;;;;;;;;;;;;;;;21.06;48.32;99623.66;5090314;28;4156;-61
2022/11/22 07:41:11;;;;;;;;;;;;;;;21.12;48.50;99620.94;5085883;28;4019;-60
2022/11/22 07:43:37;;;;;;;;;;;;;;;21.05;47.97;99614.28;5084488;28;5197;-60
2022/11/22 07:46:05;;;;;;;;;;;;;;;21.08;47.42;99615.06;5085582;28;5246;-60
2022/11/22 07:48:31;;;;;;;;;;;;;;;21.08;47.17;99620.81;5085975;28;4183;-60
2022/11/22 07:51:02;;;;;;;;;;;;;;;21.01;47.05;99601.97;5089401;28;4160;-60
2022/11/22 07:53:28;;;;;;;;;;;;;;;20.99;46.60;99599.03;5082341;28;5248;-60
2022/11/22 07:55:56;;;;;;;;;;;;;;;20.95;46.50;99590.28;5084759;28;4196;-60
2022/11/22 07:58:22;;;;;;;;;;;;;;;20.96;46.26;99591.75;5083160;28;4155;-60
2022/11/22 08:00:49;;;;;;;;;;;;;;;20.94;45.84;99589.56;5087014;28;4175;-59
2022/11/22 08:03:15;;;;;;;;;;;;;;;20.99;46.01;99585.38;5088520;28;5467;-61
2022/11/22 08:05:43;;;;;;;;;;;;;;;20.96;45.94;99583.13;5079635;28;5252;-60
2022/11/22 08:08:10;;;;;;;;;;;;;;;21.00;45.99;99586.81;5088954;28;4040;-59
2022/11/22 08:10:36;;;;;;;;;;;;;;;21.01;46.05;99587.56;5082105;28;4096;-59
2022/11/22 08:13:04;;;;;;;;;;;;;;;20.97;45.99;99588.19;5086801;28;4246;-59
2022/11/22 08:15:31;;;;;;;;;;;;;;;20.98;46.22;99574.53;5084752;28;4108;-60
2022/11/22 08:17:58;;;;;;;;;;;;;;;20.98;46.27;99588.91;5087914;28;4111;-60
2022/11/22 08:20:24;;;;;;;;;;;;;;;20.98;45.73;99586.78;5077576;28;5274;-59
2022/11/22 08:22:50;;;;;;;;;;;;;;;20.99;45.88;99581.75;5091835;28;4083;-59
2022/11/22 08:25:17;;;;;;;;;;;;;;;20.95;45.94;99593.91;5089050;28;4093;-60
2022/11/22 08:27:43;;;;;;;;;;;;;;;20.94;45.75;99598.19;5083769;28;4170;-59
2022/11/22 08:30:10;;;;;;;;;;;;;;;20.96;46.08;99583.13;5083495;28;5252;-59
2022/11/22 08:32:36;;;;;;;;;;;;;;;20.95;46.29;99585.25;5091775;28;3985;-59
2022/11/22 08:35:02;;;;;;;;;;;;;;;20.96;46.46;99591.75;5085489;28;5298;-60
2022/11/22 08:37:29;;;;;;;;;;;;;;;20.98;46.75;99588.91;5089799;28;4073;-60
2022/11/22 08:39:55;;;;;;;;;;;;;;;20.99;46.81;99596.88;5086125;28;4249;-59
2022/11/22 08:42:22;;;;;;;;;;;;;;;20.99;47.14;99599.03;5080375;28;5295;-59
2022/11/22 08:44:49;;;;;;;;;;;;;;;21.00;47.29;99609.13;5089898;28;4142;-60
2022/11/22 08:47:15;;;;;;;;;;;;;;;21.01;47.53;99593.31;5088251;28;6249;-60
2022/11/22 08:49:41;;;;;;;;;;;;;;;21.00;47.39;99603.34;5090273;28;3999;-60
2022/11/22 08:52:08;;;;;;;;;;;;;;;19.64;47.31;99608.38;5090481;28;4157;-61
2022/11/22 08:54:34;;;;;;;;;;;;;;;18.09;45.53;99618.38;5085734;28;4112;-61
2022/11/22 08:57:03;;;;;;;;;;;;;;;17.47;47.24;99626.81;5089916;28;5228;-66
2022/11/22 08:59:29;;;;;;;;;;;;;;;19.18;46.00;99637.13;5087909;28;4155;-66
2022/11/22 09:01:56;;;;;;;;;;;;;;;19.82;45.86;99630.44;5087046;28;4228;-67
2022/11/22 09:04:22;;;;;;;;;;;;;;;20.03;45.11;99634.63;5087875;28;4042;-67
2022/11/22 09:06:49;;;;;;;;;;;;;;;20.05;45.39;99629.66;5086799;28;5284;-64
2022/11/22 09:09:35;;;;;;;;;;;;;;;20.16;44.45;99644.31;5087156;28;4114;-69
2022/11/22 09:12:03;;;;;;;;;;;;;;;19.97;45.61;99634.44;5094355;28;5225;-67
2022/11/22 09:14:29;;;;;;;;;;;;;;;19.92;47.35;99650.84;5093868;28;4098;-72
2022/11/22 09:16:56;;;;;;;;;;;;;;;19.71;47.98;99643.03;5090606;28;4173;-69
2022/11/22 09:19:22;;;;;;;;;;;;;;;19.68;47.77;99656.59;5094885;28;5218;-67
2022/11/22 09:21:48;;;;;;;;;;;;;;;19.47;47.99;99660.97;5090577;28;5347;-67
2022/11/22 09:24:15;;;;;;;;;;;;;;;18.45;41.89;99657.59;5092876;28;4175;-68
2022/11/22 09:26:41;;;;;;;;;;;;;;;17.75;39.37;99660.78;5089152;28;4111;-67
2022/11/22 09:29:08;;;;;;;;;;;;;;;18.38;39.66;99653.78;5092655;28;5734;-69
2022/11/22 09:31:34;;;;;;;;;;;;;;;17.69;38.00;99654.84;5090707;28;4093;-66
2022/11/22 09:34:00;;;;;;;;;;;;;;;17.97;37.98;99658.78;5093522;28;4426;-65
2022/11/22 09:36:27;;;;;;;;;;;;;;;18.84;38.92;99651.81;5088759;28;4120;-66
2022/11/22 09:38:53;;;;;;;;;;;;;;;19.33;38.45;99654.78;5093266;28;5132;-65
2022/11/22 09:41:19;;;;;;;;;;;;;;;19.69;38.75;99671.69;5095870;28;4122;-66
2022/11/22 09:44:05;;;;;;;;;;;;;;;19.72;39.58;99673.22;5089530;28;4455;-63
2022/11/22 09:46:35;;;;;;;;;;;;;;;19.85;39.86;99672.19;5095475;28;4066;-63
2022/11/22 09:49:05;;;;;;;;;;;;;;;20.00;41.68;99679.09;5072566;28;4040;-63
2022/11/22 09:51:33;;;;;;;;;;;;;;;20.13;42.99;99680.16;5076368;28;4466;-65
2022/11/22 09:53:59;;;;;;;;;;;;;;;20.22;43.57;99673.22;5078305;28;4045;-63
2022/11/22 09:56:25;;;;;;;;;;;;;;;20.27;43.86;99678.44;5093012;28;4031;-63
2022/11/22 09:58:59;;;;;;;;;;;;;;;20.34;44.20;99676.47;5093132;28;4134;-61
2022/11/22 10:01:26;;;;;;;;;;;;;;;20.36;44.69;99679.38;5077516;28;5311;-60
2022/11/22 10:03:54;;;;;;;;;;;;;;;20.39;45.00;99678.03;5076774;28;4073;-61
2022/11/22 10:06:24;;;;;;;;;;;;;;;20.38;44.87;99673.69;5080274;28;5321;-61
2022/11/22 10:08:53;;;;;;;;;;;;;;;20.39;45.48;99668.69;5098701;28;4171;-60
2022/11/22 10:11:34;;;;;;;;;;;;;;;20.40;45.83;99659.34;5098956;28;4273;-61
2022/11/22 10:14:11;;;;;;;;;;;;;;;20.44;45.83;99668.09;5099031;28;3986;-60
2022/11/22 10:16:38;;;;;;;;;;;;;;;20.43;45.58;99671.66;5079639;28;4291;-60
2022/11/22 10:19:09;;;;;;;;;;;;;;;20.44;45.96;99668.09;5077917;28;4155;-60
2022/11/22 10:21:36;;;;;;;;;;;;;;;20.44;46.01;99668.09;5075587;28;4131;-60
2022/11/22 10:24:02;;;;;;;;;;;;;;;20.47;46.42;99672.47;5088778;28;3960;-60
2022/11/22 10:26:31;;;;;;;;;;;;;;;20.46;46.29;99662.41;5090189;28;3953;-61
2022/11/22 10:29:01;;;;;;;;;;;;;;;20.45;46.63;99669.56;5077169;28;4067;-60
2022/11/22 10:31:42;;;;;;;;;;;;;;;20.47;46.57;99666.75;5078049;28;4123;-61
2022/11/22 10:34:27;;;;;;;;;;;;;;;20.48;46.37;99673.25;5091692;28;4239;-60
2022/11/22 10:37:02;;;;;;;;;;;;;;;20.51;46.60;99678.34;5080793;28;4135;-61
2022/11/22 10:39:41;;;;;;;;;;;;;;;20.53;46.75;99680.56;5064636;28;5145;-60
2022/11/22 10:42:15;;;;;;;;;;;;;;;20.51;46.71;99677.63;5065117;28;4143;-60
2022/11/22 10:44:47;;;;;;;;;;;;;;;20.56;47.05;99684.22;5083158;28;4178;-60
2022/11/22 10:47:15;;;;;;;;;;;;;;;20.55;46.92;99665.47;5062905;28;4017;-61
2022/11/22 10:49:54;;;;;;;;;;;;;;;19.49;42.81;99675.38;5062687;28;4516;-59
2022/11/22 10:52:20;;;;;;;;;;;;;;;18.10;39.01;99664.97;5064190;28;4361;-60
2022/11/22 10:54:49;;;;;;;;;;;;;;;19.06;40.66;99659.69;5081934;28;4292;-60
2022/11/22 10:57:30;;;;;;;;;;;;;;;19.71;41.06;99657.41;5078038;28;4173;-61
2022/11/22 11:00:15;;;;;;;;;;;;;;;20.02;41.57;99659.75;5076820;28;5264;-61
2022/11/22 11:02:47;;;;;;;;;;;;;;;19.60;40.88;99662.81;5079519;28;4011;-60
2022/11/22 11:05:14;;;;;;;;;;;;;;;19.89;41.25;99657.94;5082923;28;4147;-60
2022/11/22 11:07:41;;;;;;;;;;;;;;;20.16;42.97;99650.06;5066997;28;5177;-60
2022/11/22 11:10:16;;;;;;;;;;;;;;;20.23;43.19;99651.72;5066544;28;4139;-60
2022/11/22 11:12:59;;;;;;;;;;;;;;;20.29;43.02;99649.00;5089043;28;5148;-61
2022/11/22 11:15:37;;;;;;;;;;;;;;;20.34;43.89;99647.72;5070467;28;5317;-60
2022/11/22 11:18:04;;;;;;;;;;;;;;;20.38;44.64;99653.56;5086646;28;5520;-60
2022/11/22 11:20:33;;;;;;;;;;;;;;;20.41;44.69;99652.22;5089180;28;5155;-60
2022/11/22 11:22:59;;;;;;;;;;;;;;;20.43;44.54;99652.28;5073733;28;5251;-61
2022/11/22 11:25:42;;;;;;;;;;;;;;;20.46;44.96;99648.03;5090917;28;4272;-60
2022/11/22 11:28:10;;;;;;;;;;;;;;;20.47;45.52;99643.72;5073713;28;4194;-60
2022/11/22 11:30:37;;;;;;;;;;;;;;;20.48;45.47;99644.50;5083897;28;5176;-61
2022/11/22 11:33:08;;;;;;;;;;;;;;;20.48;45.49;99642.34;5087548;28;4242;-61
2022/11/22 11:35:35;;;;;;;;;;;;;;;20.47;45.58;99646.59;5071796;28;4175;-60
2022/11/22 11:38:01;;;;;;;;;;;;;;;20.48;45.62;99645.22;5087662;28;4101;-61
2022/11/22 11:40:28;;;;;;;;;;;;;;;20.48;45.42;99636.59;5081259;28;4148;-60
2022/11/22 11:43:14;;;;;;;;;;;;;;;20.47;45.62;99637.97;5080361;28;5393;-61
2022/11/22 11:45:40;;;;;;;;;;;;;;;20.47;45.98;99643.72;5086176;28;4008;-60
2022/11/22 11:48:26;;;;;;;;;;;;;;;20.47;45.85;99655.22;5089592;28;4230;-61
2022/11/22 11:51:04;;;;;;;;;;;;;;;20.47;45.87;99655.22;5087311;28;6381;-60
2022/11/22 11:53:30;;;;;;;;;;;;;;;20.47;45.90;99651.63;5086783;28;5333;-60
2022/11/22 11:56:16;;;;;;;;;;;;;;;20.48;46.17;99645.22;5086374;28;4135;-60
2022/11/22 11:58:42;;;;;;;;;;;;;;;20.49;46.22;99661.03;5074586;28;3936;-60
2022/11/22 12:01:09;;;;;;;;;;;;;;;20.49;46.23;99658.16;5090334;28;4194;-60
2022/11/22 12:03:35;;;;;;;;;;;;;;;20.50;46.15;99653.91;5093686;28;4065;-60
2022/11/22 12:06:11;;;;;;;;;;;;;;;20.51;46.14;99663.97;5077462;28;5126;-60
2022/11/22 12:08:38;;;;;;;;;;;;;;;20.53;46.28;99659.69;5092065;28;5246;-60
2022/11/22 12:11:05;;;;;;;;;;;;;;;20.53;46.41;99648.94;5076598;28;4164;-60
2022/11/22 12:13:32;;;;;;;;;;;;;;;20.56;46.28;99652.59;5076717;28;4466;-60
2022/11/22 12:16:12;;;;;;;;;;;;;;;20.57;46.25;99654.06;5078278;28;5459;-60
2022/11/22 12:18:50;;;;;;;;;;;;;;;20.58;46.59;99647.66;5088729;28;4288;-61
2022/11/22 12:21:21;;;;;;;;;;;;;;;20.60;46.69;99638.34;5060268;28;5473;-60
2022/11/22 12:24:01;;;;;;;;;;;;;;;20.58;46.39;99627.50;5090357;28;4007;-61
2022/11/22 12:26:48;;;;;;;;;;;;;;;20.55;46.48;99617.34;5090157;28;4152;-60
2022/11/22 12:29:14;;;;;;;;;;;;;;;20.61;46.35;99616.78;5073493;28;4133;-58
2022/11/22 12:31:59;;;;;;;;;;;;;;;20.49;46.20;99612.16;5090284;28;5089;-59
2022/11/22 12:34:27;;;;;;;;;;;;;;;20.59;46.43;99628.25;5090924;28;4112;-60
2022/11/22 12:37:08;;;;;;;;;;;;;;;20.73;46.53;99628.63;5089353;28;4095;-58
2022/11/22 12:39:35;;;;;;;;;;;;;;;20.76;46.68;99632.28;5077730;28;5186;-58
2022/11/22 12:42:08;;;;;;;;;;;;;;;20.76;46.17;99627.25;5090781;28;4149;-59
2022/11/22 12:44:38;;;;;;;;;;;;;;;20.76;46.30;99635.16;5089404;28;5402;-59
2022/11/22 12:47:10;;;;;;;;;;;;;;;20.77;46.41;99639.47;5075862;28;5114;-59
2022/11/22 12:49:38;;;;;;;;;;;;;;;20.82;46.65;99636.03;5092421;28;4170;-61
2022/11/22 12:52:08;;;;;;;;;;;;;;;20.86;46.45;99636.13;5090880;28;4423;-60
2022/11/22 12:54:39;;;;;;;;;;;;;;;20.87;46.42;99634.72;5093682;28;4447;-59
2022/11/22 12:57:13;;;;;;;;;;;;;;;20.95;46.75;99624.81;5075999;28;4091;-62
2022/11/22 13:00:02;;;;;;;;;;;;;;;20.96;46.61;99620.53;5073753;28;4151;-61
2022/11/22 13:02:33;;;;;;;;;;;;;;;20.92;46.40;99616.13;5074278;28;3960;-60
2022/11/22 13:05:14;;;;;;;;;;;;;;;20.95;46.34;99625.53;5076502;28;4343;-62
2022/11/22 13:07:49;;;;;;;;;;;;;;;20.95;46.63;99616.19;5092172;28;4194;-63
2022/11/22 13:10:33;;;;;;;;;;;;;;;20.92;46.70;99619.00;5075137;28;6257;-61
2022/11/22 13:13:00;;;;;;;;;;;;;;;20.98;46.75;99611.94;5091046;28;4180;-61
2022/11/22 13:15:27;;;;;;;;;;;;;;;20.99;46.87;99601.91;5079351;28;4075;-59
2022/11/22 13:17:54;;;;;;;;;;;;;;;20.92;46.47;99598.88;5095601;28;4228;-62